Latest Coastal Weather Observations for Cape Otway

IDV60701

Issued at 3:02 pm EST Tuesday 30 August 2016 (issued every 10 minutes, with the page automatically refreshed every 10 minutes)

About coastal observations | Map of coastal stations | Coastal observations for VIC | Marine services | Other Formats
Station Details ID: 090015 Name: CAPE OTWAY LIGHTHOUSE Lat: -38.86 Lon: 143.51 Height: 82.0 m
Data from the previous 72 hours. | See also: Recent months at Cape Otway
Date/Time
EST
Temp
°C
Wind Pressure Rain since
9am
mm
Weather Cloud Vis
km
Sea
Height
m
Swell
Dir  Spd
kts
Gust
kts
hPa Trend Height
m
Period
s
Dir
30/03:00pm 14.5 ENE 5 7 1012.4 - 0.0 - - - - - - -
30/02:30pm 14.0 ENE 6 10 1012.5 - 0.0 - - - - - - -
30/02:00pm 13.7 ENE 8 12 1012.7 - 0.0 - - - - - - -
30/01:30pm 13.8 E 7 12 1013.8 - 0.0 - - - - - - -
30/01:00pm 14.0 E 6 12 1014.2 - 0.0 - - - - - - -
30/12:30pm 13.9 ENE 8 11 1015.1 - 0.0 - - - - - - -
30/12:00pm 13.7 E 7 10 1015.4 - 0.0 - - - - - - -
30/11:30am 13.7 E 7 10 1015.8 - 0.0 - - - - - - -
30/11:00am 14.0 NE 9 14 1016.9 - 0.0 - - - - - - -
30/10:30am 13.7 NNE 7 12 1017.6 - 0.0 - - - - - - -
30/10:00am 12.5 NE 8 10 1017.7 - 0.0 - - - - - - -
30/09:30am 12.5 ENE 11 17 1017.5 - 0.0 - - - - - - -
30/09:00am 12.4 ENE 11 14 1017.7 - 0.0 - - - - - - -
30/08:30am 12.3 ENE 9 12 1018.2 - 0.0 - - - - - - -
30/08:00am 12.0 ENE 7 9 1018.6 - 0.0 - - - - - - -
30/07:30am 12.2 NE 7 9 1018.8 - 0.0 - - - - - - -
30/07:00am 12.1 ENE 7 10 1018.9 - 0.0 - - - - - - -
30/06:30am 12.1 NE 8 10 1019.2 - 0.0 - - - - - - -
30/06:00am 12.9 N 9 13 1019.0 - 0.0 - - - - - - -
30/05:30am 12.3 NE 8 11 1018.8 - 0.0 - - - - - - -
30/05:00am 12.8 NE 7 10 1018.6 - 0.0 - - - - - - -
30/04:30am 12.3 ENE 7 11 1018.7 - 0.0 - - - - - - -
30/04:00am 12.0 ENE 6 8 1018.9 - 0.0 - - - - - - -
30/03:30am 12.3 ENE 6 8 1019.2 - 0.0 - - - - - - -
30/03:00am 12.4 E 6 8 1019.4 - 0.0 - - - - - - -
30/02:30am 12.4 ENE 5 7 1019.5 - 0.0 - - - - - - -
30/02:00am 13.1 NE 9 13 1019.6 - 0.0 - - - - - - -
30/01:30am 12.7 NE 9 11 1019.2 - 0.0 - - - - - - -
30/01:00am 13.0 NE 6 12 1019.8 - 0.0 - - - - - - -
30/12:30am 13.0 NE 7 9 1019.8 - 0.0 - - - - - - -
30/12:00am 13.1 NE 9 13 1020.1 - 0.0 - - - - - - -
 
Date/Time
EST
Temp
°C
Wind Pressure Rain since
9am
mm
Weather Cloud Vis
km
Sea
Height
m
Swell
Dir  Spd
kts
Gust
kts
hPa Trend Height
m
Period
s
Dir
29/11:30pm 13.5 NE 11 14 1020.1 - 0.0 - - - - - - -
29/11:00pm 13.4 NE 10 14 1020.4 - 0.0 - - - - - - -
29/10:30pm 13.9 NE 9 12 1020.6 - 0.0 - - - - - - -
29/10:00pm 14.4 NE 10 14 1020.9 - 0.0 - - - - - - -
29/09:30pm 14.7 NE 10 15 1021.1 - 0.0 - - - - - - -
29/09:00pm 15.0 NNE 10 16 1021.1 - 0.0 - - - - - - -
29/08:30pm 15.3 NE 11 14 1020.4 - 0.0 - - - - - - -
29/08:00pm 15.3 NE 9 12 1020.6 - 0.0 - - - - - - -
29/07:30pm 15.3 NNE 10 13 1020.7 - 0.0 - - - - - - -
29/07:00pm 14.9 NNE 9 12 1020.4 - 0.0 - - - - - - -
29/06:30pm 14.0 NE 9 11 1019.9 - 0.0 - - - - - - -
29/06:00pm 14.6 NE 9 11 1020.4 - 0.0 - - - - - - -
29/05:30pm 14.7 NE 9 12 1020.2 - 0.0 - - - - - - -
29/05:00pm 15.8 ENE 8 11 1020.1 - 0.0 - - - - - - -
29/04:30pm 16.9 ENE 6 9 1020.2 - 0.0 - - - - - - -
29/04:00pm 16.1 E 7 9 1020.2 - 0.0 - - - - - - -
29/03:30pm 17.1 ENE 8 11 1020.4 - 0.0 - - - - - - -
29/03:00pm 17.1 E 7 13 1020.6 - 0.0 - - - - - - -
29/02:30pm 17.3 E 7 11 1020.8 - 0.0 - - - - - - -
29/02:00pm 18.8 N 9 13 1021.0 - 0.0 - - - - - - -
29/01:30pm 18.3 N 11 16 1021.2 - 0.0 - - - - - - -
29/01:00pm 17.0 N 9 16 1021.5 - 0.0 - - - - - - -
29/12:30pm 17.9 N 11 19 1021.7 - 0.0 - - - - - - -
29/12:00pm 19.4 N 9 17 1022.0 - 0.0 - - - - - - -
29/11:30am 18.1 N 11 19 1021.9 - 0.0 - - - - - - -
29/11:00am 17.5 N 9 14 1022.4 - 0.0 - - - - - - -
29/10:30am 17.7 NNE 9 14 1022.5 - 0.0 - - - - - - -
29/10:00am 17.1 NE 5 11 1022.8 - 0.0 - - - - - - -
29/09:30am 17.0 NE 6 12 1023.1 - 0.0 - - - - - - -
29/09:00am 14.4 E 6 8 1023.2 - 0.0 - - - - - - -
29/08:30am 14.4 ESE 4 5 1022.9 - 0.0 - - - - - - -
29/08:00am 14.8 N 9 15 1022.5 - 0.0 - - - - - - -
29/07:30am 13.2 N 13 17 1022.0 - 0.0 - - - - - - -
29/07:00am 12.6 N 14 18 1021.6 - 0.0 - - - - - - -
29/06:30am 12.5 N 13 18 1021.4 - 0.0 - - - - - - -
29/06:00am 12.7 N 15 19 1021.2 - 0.0 - - - - - - -
29/05:30am 12.7 N 15 20 1021.0 - 0.0 - - - - - - -
29/05:00am 12.7 N 11 17 1020.9 - 0.0 - - - - - - -
29/04:30am 12.4 N 7 11 1020.8 - 0.0 - - - - - - -
29/04:00am 12.1 NNE 8 13 1020.8 - 0.0 - - - - - - -
29/03:30am 11.2 NNE 6 10 1020.8 - 0.0 - - - - - - -
29/03:00am 10.2 N 5 8 1021.0 - 0.0 - - - - - - -
29/02:30am 9.9 E 6 7 1021.0 - 0.0 - - - - - - -
29/02:00am 9.4 NE 7 8 1021.2 - 0.0 - - - - - - -
29/01:30am 9.1 ENE 6 7 1021.2 - 0.0 - - - - - - -
29/01:00am 8.8 ESE 3 5 1021.2 - 0.0 - - - - - - -
29/12:30am 10.0 SE 2 5 1021.1 - 0.0 - - - - - - -
29/12:00am 10.0 NNE 6 8 1021.1 - 0.0 - - - - - - -
 
Date/Time
EST
Temp
°C
Wind Pressure Rain since
9am
mm
Weather Cloud Vis
km
Sea
Height
m
Swell
Dir  Spd
kts
Gust
kts
hPa Trend Height
m
Period
s
Dir
28/11:30pm 10.3 NE 9 12 1021.0 - 0.0 - - - - - - -
28/11:00pm 10.8 NE 10 13 1021.1 - 0.0 - - - - - - -
28/10:30pm 10.8 NE 10 13 1021.2 - 0.0 - - - - - - -
28/10:00pm 10.8 ENE 11 13 1020.9 - 0.0 - - - - - - -
28/09:30pm 10.6 ENE 10 13 1020.8 - 0.0 - - - - - - -
28/09:00pm 10.7 ENE 8 10 1020.8 - 0.0 - - - - - - -
28/08:30pm 10.8 NE 10 12 1020.4 - 0.0 - - - - - - -
28/08:00pm 10.7 NE 10 12 1020.0 - 0.0 - - - - - - -
28/07:30pm 10.8 NE 9 12 1019.8 - 0.0 - - - - - - -
28/07:00pm 10.8 NE 8 11 1019.7 - 0.0 - - - - - - -
28/06:30pm 10.9 NE 8 11 1019.5 - 0.0 - - - - - - -
28/06:00pm 11.5 ENE 7 10 1019.4 - 0.0 - - - - - - -
28/05:30pm 12.0 ENE 7 9 1019.0 - 0.0 - - - - - - -
28/05:00pm 12.6 ENE 7 9 1018.9 - 0.0 - - - - - - -
28/04:30pm 12.6 ENE 7 9 1018.8 - 0.0 - - - - - - -
28/04:00pm 12.5 E 6 10 1018.8 - 0.0 - - - - - - -
28/03:30pm 13.0 E 5 8 1018.8 - 0.0 - - - - - - -
28/03:00pm 13.1 SE 4 5 1018.9 - 0.0 - - - - - - -
28/02:30pm 14.5 S 4 5 1018.8 - 0.0 - - - - - - -
28/02:00pm 13.2 SW 5 7 1018.8 - 0.0 - - - - - - -
28/01:30pm 13.6 SW 8 11 1019.0 - 0.0 - - - - - - -
28/01:00pm 13.3 WSW 7 8 1019.2 - 0.0 - - - - - - -
28/12:30pm 13.1 W 6 8 1019.5 - 0.0 - - - - - - -
28/12:00pm 13.5 W 7 9 1019.7 - 0.0 - - - - - - -
28/11:30am 13.3 W 6 9 1019.9 - 0.0 - - - - - - -
28/11:00am 12.9 W 8 10 1020.0 - 0.0 - - - - - - -
28/10:30am 12.8 W 7 10 1019.8 - 0.0 - - - - - - -
28/10:00am 12.5 WNW 6 9 1019.8 - 0.0 - - - - - - -
28/09:30am 11.5 NW 5 7 1019.7 - 0.0 - - - - - - -
28/09:00am 10.4 NNW 6 8 1019.8 - 1.4 - - - - - - -
28/08:30am 11.0 NW 7 11 1019.4 - 1.4 - - - - - - -
28/08:00am 10.3 NW 7 11 1018.9 - 1.4 - - - - - - -
28/07:30am 10.4 NW 7 12 1018.6 - 1.4 - - - - - - -
28/07:00am 10.2 WNW 9 15 1018.3 - 1.4 - - - - - - -
28/06:30am 10.1 WNW 11 16 1018.0 - 1.4 - - - - - - -
28/06:00am 10.2 NW 10 15 1017.8 - 1.4 - - - - - - -
28/05:30am 10.9 WNW 12 16 1017.6 - 0.8 - - - - - - -
28/05:00am 11.5 W 11 17 1017.5 - 0.6 - - - - - - -
28/04:30am 12.1 WNW 16 23 1017.0 - 0.0 - - - - - - -
28/04:00am 12.0 WNW 15 22 1016.3 - 0.0 - - - - - - -
28/03:34am 12.6 WNW 16 26 1016.1 - 0.0 - - - - - - -
28/03:30am 12.6 WNW 16 25 1016.1 - 0.0 - - - - - - -
28/03:02am 12.9 WNW 19 29 1016.0 - 0.0 - - - - - - -
28/03:00am 12.9 NW 18 26 1016.1 - 0.0 - - - - - - -
28/02:31am 12.8 NW 18 31 1015.8 - 0.0 - - - - - - -
28/02:30am 12.7 NW 17 25 1015.8 - 0.0 - - - - - - -
28/02:00am 12.6 NW 16 24 1015.8 - 0.0 - - - - - - -
28/01:31am 12.5 NW 16 26 1015.8 - 0.0 - - - - - - -
28/01:30am 12.6 NW 17 26 1015.8 - 0.0 - - - - - - -
28/01:00am 12.7 NW 16 26 1015.9 - 0.0 - - - - - - -
28/12:30am 13.1 NW 18 28 1015.7 - 0.0 - - - - - - -
28/12:00am 13.1 NW 19 31 1015.7 - 0.0 - - - - - - -
 
Date/Time
EST
Temp
°C
Wind Pressure Rain since
9am
mm
Weather Cloud Vis
km
Sea
Height
m
Swell
Dir  Spd
kts
Gust
kts
hPa Trend Height
m
Period
s
Dir
27/11:30pm 13.0 NNW 20 34 1015.5 - 0.0 - - - - - - -
27/11:00pm 12.8 NNW 19 30 1015.7 - 0.0 - - - - - - -
27/10:30pm 12.8 NNW 20 33 1015.7 - 0.0 - - - - - - -
27/10:00pm 12.8 NNW 20 33 1015.8 - 0.0 - - - - - - -
27/09:30pm 12.5 NNW 20 37 1015.9 - 0.0 - - - - - - -
27/09:00pm 12.5 NNW 22 35 1016.2 - 0.0 - - - - - - -
27/08:30pm 12.4 NNW 19 29 1016.3 - 0.0 - - - - - - -
27/08:00pm 12.3 NNW 18 30 1016.2 - 0.0 - - - - - - -
27/07:30pm 11.9 NNW 16 26 1016.2 - 0.0 - - - - - - -
27/07:00pm 11.7 NNW 15 25 1016.1 - 0.0 - - - - - - -
27/06:55pm 11.6 NNW 15 25 1016.0 - 0.0 - - - - - - -
27/06:30pm 11.4 NW 12 19 1016.3 - 0.0 - - - - - - -
27/06:00pm 11.3 NW 11 18 1016.5 - 0.0 - - - - - - -
27/05:30pm 11.6 NW 10 15 1016.2 - 0.0 - - - - - - -
27/05:00pm 11.9 NW 15 23 1016.4 - 0.0 - - - - - - -
27/04:34pm 12.1 NW 17 27 1016.3 - 0.0 - - - - - - -
27/04:30pm 12.2 NW 16 25 1016.2 - 0.0 - - - - - - -
27/04:00pm 12.4 NW 15 26 1016.1 - 0.0 - - - - - - -
27/03:42pm 13.1 NW 15 26 1016.0 - 0.0 - - - - - - -
27/03:30pm 12.6 NNW 16 24 1016.1 - 0.0 - - - - - - -
27/03:18pm 12.7 NNW 15 25 1016.2 - 0.0 - - - - - - -

Other Formats:

Comma delimited format used in spreadsheet applications
http://www.bom.gov.au/fwo/IDV60701/IDV60701.94842.axf

JavaScript Object Notation format (JSON) in row-major order
http://www.bom.gov.au/fwo/IDV60701/IDV60701.94842.json